createdAt,value
2023-04-16T00:00:35.328Z,8.07
2023-04-16T00:03:02.881Z,4.78
2023-04-16T00:05:30.149Z,5.28
2023-04-16T00:07:57.415Z,7.40
2023-04-16T00:10:24.571Z,6.40
2023-04-16T00:12:51.722Z,12.35
2023-04-16T00:15:18.830Z,5.03
2023-04-16T00:17:46.067Z,8.68
2023-04-16T00:20:13.358Z,2.10
2023-04-16T00:22:40.501Z,8.32
2023-04-16T00:25:07.827Z,7.95
2023-04-16T00:27:34.981Z,10.13
2023-04-16T00:30:02.095Z,2.70
2023-04-16T00:32:29.468Z,14.50
2023-04-16T00:34:56.729Z,7.68
2023-04-16T00:37:23.859Z,7.07
2023-04-16T00:39:51.210Z,4.65
2023-04-16T00:42:18.351Z,6.93
2023-04-16T00:44:45.705Z,7.80
2023-04-16T00:47:12.941Z,4.90
2023-04-16T00:49:40.336Z,12.90
2023-04-16T00:52:07.509Z,4.72
2023-04-16T00:54:34.697Z,5.05
2023-04-16T00:57:02.460Z,4.28
2023-04-16T00:59:29.999Z,7.13
2023-04-16T01:01:57.219Z,2.83
2023-04-16T01:04:24.712Z,6.90
2023-04-16T01:06:51.907Z,7.13
2023-04-16T01:09:19.302Z,11.18
2023-04-16T01:11:46.450Z,5.00
2023-04-16T01:14:13.582Z,9.35
2023-04-16T01:16:40.723Z,5.97
2023-04-16T01:19:08.044Z,6.60
2023-04-16T01:21:35.943Z,6.10
2023-04-16T01:24:04.519Z,4.40
2023-04-16T01:26:31.888Z,4.97
2023-04-16T01:28:59.271Z,8.77
2023-04-16T01:31:26.595Z,9.48
2023-04-16T01:33:53.741Z,4.55
2023-04-16T01:36:20.984Z,9.35
2023-04-16T01:38:48.120Z,4.15
2023-04-16T01:41:15.560Z,6.20
2023-04-16T01:43:42.779Z,9.98
2023-04-16T01:46:19.539Z,9.77
2023-04-16T01:48:47.102Z,5.72
2023-04-16T01:51:14.258Z,6.13
2023-04-16T01:53:41.553Z,7.15
2023-04-16T01:56:08.958Z,6.13
2023-04-16T01:58:36.277Z,11.23
2023-04-16T02:01:03.979Z,11.55
2023-04-16T02:03:31.750Z,11.02
2023-04-16T02:05:59.092Z,7.70
2023-04-16T02:08:26.377Z,11.32
2023-04-16T02:10:53.715Z,5.13
2023-04-16T02:13:21.065Z,4.50
2023-04-16T02:15:48.953Z,8.73
2023-04-16T02:18:16.256Z,5.68
2023-04-16T02:20:44.543Z,9.10
2023-04-16T02:23:11.930Z,12.00
2023-04-16T02:25:42.593Z,9.18
2023-04-16T02:28:10.706Z,8.27
2023-04-16T02:30:38.213Z,14.50
2023-04-16T02:33:07.285Z,10.02
2023-04-16T02:35:35.217Z,8.77
2023-04-16T02:38:02.912Z,9.23
2023-04-16T02:40:30.106Z,14.32
2023-04-16T02:42:57.229Z,10.18
2023-04-16T02:45:24.982Z,11.77
2023-04-16T02:47:52.475Z,12.35
2023-04-16T02:50:19.752Z,13.93
2023-04-16T02:52:46.909Z,11.65
2023-04-16T02:55:14.055Z,13.15
2023-04-16T02:57:42.600Z,8.00
2023-04-16T03:00:10.142Z,11.55
2023-04-16T03:02:37.483Z,12.65
2023-04-16T03:05:05.074Z,12.02
2023-04-16T03:07:32.238Z,11.88
2023-04-16T03:09:59.921Z,8.48
2023-04-16T03:12:27.096Z,7.60
2023-04-16T03:14:54.373Z,13.45
2023-04-16T03:17:21.503Z,12.50
2023-04-16T03:19:50.726Z,13.70
2023-04-16T03:22:18.449Z,8.55
2023-04-16T03:24:45.573Z,9.93
2023-04-16T03:27:12.758Z,9.30
2023-04-16T03:29:39.899Z,9.63
2023-04-16T03:32:07.052Z,10.30
2023-04-16T03:34:34.306Z,16.17
2023-04-16T03:37:01.582Z,6.15
2023-04-16T03:39:28.879Z,10.18
2023-04-16T03:41:55.994Z,18.63
2023-04-16T03:44:23.098Z,13.75
2023-04-16T03:46:50.522Z,15.77
2023-04-16T03:49:18.149Z,15.98
2023-04-16T03:51:45.399Z,12.07
2023-04-16T03:54:12.542Z,8.35
2023-04-16T03:56:42.913Z,7.53
2023-04-16T03:59:10.515Z,9.45
2023-04-16T04:01:37.758Z,13.95
2023-04-16T04:04:05.386Z,4.90
2023-04-16T04:06:32.685Z,9.43
2023-04-16T04:09:00.226Z,7.38
2023-04-16T04:11:27.712Z,13.77
2023-04-16T04:13:54.928Z,7.00
2023-04-16T04:16:22.186Z,9.20
2023-04-16T04:18:49.428Z,12.75
2023-04-16T04:21:16.579Z,10.55
2023-04-16T04:23:43.761Z,10.48
2023-04-16T04:26:10.914Z,14.43
2023-04-16T04:28:38.190Z,8.32
2023-04-16T04:31:05.439Z,18.92
2023-04-16T04:33:32.646Z,12.40
2023-04-16T04:35:59.798Z,12.70
2023-04-16T04:38:27.037Z,19.35
2023-04-16T04:40:54.380Z,8.70
2023-04-16T04:43:22.109Z,16.38
2023-04-16T04:45:49.519Z,18.10
2023-04-16T04:48:17.521Z,19.17
2023-04-16T04:50:46.030Z,22.10
2023-04-16T04:53:15.135Z,20.88
2023-04-16T04:55:42.376Z,19.08
2023-04-16T04:58:09.627Z,20.13
2023-04-16T05:00:37.067Z,19.35
2023-04-16T05:03:05.509Z,20.35
2023-04-16T05:05:33.103Z,12.68
2023-04-16T05:08:00.272Z,15.40
2023-04-16T05:10:27.565Z,14.23
2023-04-16T05:12:54.752Z,16.25
2023-04-16T05:15:21.955Z,13.88
2023-04-16T05:17:49.254Z,17.77
2023-04-16T05:20:16.524Z,20.15
2023-04-16T05:22:43.697Z,16.77
2023-04-16T05:25:11.096Z,18.92
2023-04-16T05:27:38.419Z,19.20
2023-04-16T05:30:05.972Z,20.83
2023-04-16T05:32:33.173Z,9.23
2023-04-16T05:35:00.428Z,14.18
2023-04-16T05:37:27.573Z,20.15
2023-04-16T05:39:54.714Z,18.42
2023-04-16T05:42:22.134Z,18.60
2023-04-16T05:44:49.359Z,17.50
2023-04-16T05:47:17.533Z,24.55
2023-04-16T05:49:44.867Z,20.40
2023-04-16T05:52:12.073Z,24.48
2023-04-16T05:54:39.265Z,21.92
2023-04-16T05:57:06.477Z,18.67
2023-04-16T05:59:34.478Z,13.00
2023-04-16T06:02:01.773Z,19.02
2023-04-16T06:04:29.948Z,21.00
2023-04-16T06:06:57.310Z,14.90
2023-04-16T06:09:24.916Z,30.00
2023-04-16T06:11:52.229Z,24.25
2023-04-16T06:14:19.375Z,25.38
2023-04-16T06:16:46.897Z,19.42
2023-04-16T06:19:14.080Z,20.13
2023-04-16T06:21:41.241Z,19.40
2023-04-16T06:24:08.430Z,22.13
2023-04-16T06:26:35.787Z,28.98
2023-04-16T06:29:02.946Z,21.80
2023-04-16T06:31:30.861Z,15.75
2023-04-16T06:33:58.107Z,18.83
2023-04-16T06:40:27.631Z,28.55
2023-04-16T06:42:55.000Z,16.77
2023-04-16T06:45:22.464Z,20.10
2023-04-16T06:47:50.860Z,27.42
2023-04-16T06:50:18.082Z,26.80
2023-04-16T06:52:45.327Z,23.83
2023-04-16T06:55:12.455Z,13.95
2023-04-16T06:57:40.667Z,29.30
2023-04-16T07:00:08.097Z,20.38
2023-04-16T07:02:35.723Z,26.05
2023-04-16T07:05:02.978Z,20.33
2023-04-16T07:07:30.992Z,18.20
2023-04-16T07:09:58.185Z,18.40
2023-04-16T07:12:25.427Z,19.38
2023-04-16T07:14:52.552Z,21.17
2023-04-16T07:17:19.673Z,17.90
2023-04-16T07:19:47.099Z,19.77
2023-04-16T07:22:14.265Z,13.77
2023-04-16T07:24:41.383Z,14.18
2023-04-16T07:27:08.566Z,20.33
2023-04-16T07:29:35.839Z,21.95
2023-04-16T07:32:03.100Z,24.73
2023-04-16T07:34:30.525Z,20.33
2023-04-16T07:36:57.658Z,22.08
2023-04-16T07:39:24.839Z,20.25
2023-04-16T07:41:52.053Z,32.08
2023-04-16T07:44:19.150Z,43.78
2023-04-16T07:46:47.720Z,30.60
2023-04-16T07:49:15.463Z,18.33
2023-04-16T07:51:42.644Z,53.60
2023-04-16T07:54:09.867Z,13.60
2023-04-16T07:56:37.006Z,18.35
2023-04-16T07:59:20.995Z,23.02
2023-04-16T08:01:49.826Z,21.50
2023-04-16T08:04:23.121Z,15.48
2023-04-16T08:06:51.481Z,16.10
2023-04-16T08:09:19.556Z,15.02
2023-04-16T08:11:46.941Z,18.70
2023-04-16T08:14:14.123Z,19.90
2023-04-16T08:16:41.985Z,19.38
2023-04-16T08:19:09.542Z,28.77
2023-04-16T08:21:37.119Z,14.60
2023-04-16T08:24:04.323Z,10.32
2023-04-16T08:26:31.556Z,16.23
2023-04-16T08:28:58.933Z,14.07
2023-04-16T08:31:26.324Z,15.02
2023-04-16T08:33:53.518Z,12.52
2023-04-16T08:36:20.925Z,9.35
2023-04-16T08:38:48.333Z,9.43
2023-04-16T08:41:15.849Z,12.43
2023-04-16T08:43:45.010Z,12.57
2023-04-16T08:46:13.058Z,10.88
2023-04-16T08:48:43.786Z,7.53
2023-04-16T08:51:12.123Z,6.38
2023-04-16T08:54:02.309Z,11.35
2023-04-16T08:56:31.573Z,12.50
2023-04-16T08:59:02.026Z,9.48
2023-04-16T09:01:29.472Z,11.32
2023-04-16T09:03:57.185Z,10.35
2023-04-16T09:06:24.767Z,15.13
2023-04-16T09:08:53.263Z,19.15
2023-04-16T09:11:20.507Z,8.93
2023-04-16T09:13:47.769Z,16.65
2023-04-16T09:16:15.583Z,11.90
2023-04-16T09:18:42.902Z,7.93
2023-04-16T09:21:13.357Z,10.65
2023-04-16T09:23:41.192Z,8.82
2023-04-16T09:26:08.433Z,11.93
2023-04-16T09:28:46.551Z,4.97
2023-04-16T09:31:14.415Z,5.85
2023-04-16T09:33:42.838Z,9.88
2023-04-16T09:36:10.708Z,10.45
2023-04-16T09:38:51.490Z,11.88
2023-04-16T09:41:19.267Z,9.48
2023-04-16T09:43:57.108Z,9.55
2023-04-16T09:46:30.512Z,8.90
2023-04-16T09:48:57.970Z,11.68
2023-04-16T09:51:27.025Z,10.52
2023-04-16T09:53:54.874Z,6.65
2023-04-16T09:56:25.868Z,9.23
2023-04-16T09:58:58.120Z,6.63
2023-04-16T10:01:25.640Z,10.27
2023-04-16T10:03:56.156Z,6.07
2023-04-16T10:06:25.360Z,11.10
2023-04-16T10:08:53.687Z,10.05
2023-04-16T10:11:21.464Z,9.45
2023-04-16T10:13:48.695Z,10.60
2023-04-16T10:16:16.065Z,6.72
2023-04-16T10:18:44.307Z,6.47
2023-04-16T10:21:12.743Z,8.02
2023-04-16T10:23:40.694Z,11.00
2023-04-16T10:26:08.128Z,20.10
2023-04-16T10:28:36.340Z,45.78
2023-04-16T10:31:05.677Z,26.70
2023-04-16T10:33:34.209Z,13.35
2023-04-16T10:36:09.754Z,11.68
2023-04-16T10:38:38.987Z,17.08
2023-04-16T10:41:07.361Z,10.23
2023-04-16T10:43:40.025Z,14.77
2023-04-16T10:46:20.045Z,38.72
2023-04-16T10:48:50.205Z,17.38
2023-04-16T10:51:34.853Z,13.75
2023-04-16T10:54:19.622Z,7.47
2023-04-16T10:56:47.361Z,13.85
2023-04-16T10:59:18.259Z,8.57
2023-04-16T11:01:46.421Z,11.60
2023-04-16T11:04:23.346Z,10.30
2023-04-16T11:07:05.791Z,12.63
2023-04-16T11:09:49.694Z,10.98
2023-04-16T11:12:18.854Z,12.60
2023-04-16T11:14:53.128Z,13.57
2023-04-16T11:17:21.309Z,10.52
2023-04-16T11:19:48.538Z,13.75
2023-04-16T11:22:17.288Z,8.75
2023-04-16T11:27:12.980Z,12.18
2023-04-16T11:29:40.172Z,13.07
2023-04-16T11:32:07.332Z,10.55
2023-04-16T11:34:34.545Z,14.10
2023-04-16T11:37:02.024Z,16.00
2023-04-16T11:39:29.333Z,11.95
2023-04-16T11:41:56.630Z,15.68
2023-04-16T11:44:25.167Z,14.25
2023-04-16T11:46:54.194Z,13.55
2023-04-16T11:49:28.303Z,35.15
2023-04-16T11:51:57.711Z,18.80
2023-04-16T11:54:25.645Z,25.67
2023-04-16T11:56:53.846Z,20.38
2023-04-16T11:59:22.424Z,16.27
2023-04-16T12:01:53.638Z,13.75
2023-04-16T12:04:28.087Z,19.73
2023-04-16T12:07:09.583Z,19.15
2023-04-16T12:09:40.787Z,20.80
2023-04-16T12:12:26.605Z,19.67
2023-04-16T12:14:59.458Z,7.65
2023-04-16T12:20:20.922Z,17.40
2023-04-16T12:22:49.629Z,16.15
2023-04-16T12:27:50.061Z,12.90
2023-04-16T12:30:21.143Z,10.90
2023-04-16T12:32:49.237Z,14.70
2023-04-16T12:35:30.475Z,15.38
2023-04-16T12:37:57.677Z,14.73
2023-04-16T12:40:24.826Z,20.17
2023-04-16T12:42:52.032Z,10.45
2023-04-16T12:45:19.274Z,13.68
2023-04-16T12:47:47.161Z,16.75
2023-04-16T12:50:14.347Z,16.88
2023-04-16T12:52:41.522Z,11.48
2023-04-16T12:55:08.973Z,16.33
2023-04-16T12:57:36.177Z,15.45
2023-04-16T13:00:06.369Z,17.77
2023-04-16T13:02:35.975Z,21.42
2023-04-16T13:08:32.550Z,16.92
2023-04-16T13:14:28.203Z,17.27
2023-04-16T13:16:55.387Z,16.58
2023-04-16T13:19:22.581Z,13.27
2023-04-16T13:21:49.849Z,14.73
2023-04-16T13:24:17.112Z,12.32
2023-04-16T13:26:44.278Z,15.75
2023-04-16T13:29:11.805Z,18.42
2023-04-16T13:31:39.534Z,17.65
2023-04-16T13:34:06.817Z,16.55
2023-04-16T13:36:34.090Z,16.60
2023-04-16T13:39:01.530Z,16.30
2023-04-16T13:41:28.681Z,12.82
2023-04-16T13:43:56.869Z,17.23
2023-04-16T13:46:24.181Z,15.35
2023-04-16T13:48:51.787Z,18.45
2023-04-16T13:51:19.454Z,16.13
2023-04-16T13:53:46.580Z,14.52
2023-04-16T13:56:13.716Z,24.42
2023-04-16T13:58:41.660Z,13.10
2023-04-16T14:01:10.035Z,13.30
2023-04-16T14:03:39.032Z,14.65
2023-04-16T14:06:06.678Z,20.05
2023-04-16T14:08:33.773Z,23.70
2023-04-16T14:11:02.987Z,23.95
2023-04-16T14:13:30.208Z,18.20
2023-04-16T14:15:57.514Z,14.13
2023-04-16T14:18:24.703Z,18.05
2023-04-16T14:20:51.898Z,15.23
2023-04-16T14:23:19.029Z,18.50
2023-04-16T14:25:46.129Z,22.02
2023-04-16T14:28:15.630Z,21.10
2023-04-16T14:30:44.329Z,22.30
2023-04-16T14:33:14.720Z,22.58
2023-04-16T14:35:41.927Z,28.58
2023-04-16T14:38:09.122Z,16.83
2023-04-16T14:40:36.271Z,22.65
2023-04-16T14:43:03.476Z,21.23
2023-04-16T14:45:32.561Z,19.50
2023-04-16T14:47:59.826Z,16.70
2023-04-16T14:50:26.971Z,19.25
2023-04-16T14:52:54.635Z,22.33
2023-04-16T14:55:21.773Z,20.08
2023-04-16T14:57:49.078Z,50.22
2023-04-16T15:00:18.682Z,23.95
2023-04-16T15:02:48.120Z,22.90
2023-04-16T15:05:15.542Z,26.25
2023-04-16T15:11:12.648Z,20.60
2023-04-16T15:13:40.002Z,23.30
2023-04-16T15:16:07.427Z,18.98
2023-04-16T15:18:34.688Z,17.83
2023-04-16T15:21:01.834Z,19.92
2023-04-16T15:23:29.141Z,19.70
2023-04-16T15:25:58.329Z,18.67
2023-04-16T15:33:47.965Z,17.58
2023-04-16T15:36:16.597Z,22.60
2023-04-16T15:38:43.823Z,15.50
2023-04-16T15:41:11.370Z,16.83
2023-04-16T15:43:39.672Z,17.67
2023-04-16T15:46:08.802Z,14.48
2023-04-16T15:48:36.072Z,14.13
2023-04-16T15:51:03.318Z,17.20
2023-04-16T15:53:30.739Z,9.50
2023-04-16T15:55:58.116Z,14.13
2023-04-16T15:58:26.102Z,12.82
2023-04-16T16:00:53.489Z,19.08
2023-04-16T16:03:21.574Z,15.57
2023-04-16T16:05:49.018Z,17.70
2023-04-16T16:08:16.366Z,11.93
2023-04-16T16:10:43.651Z,14.25
2023-04-16T16:13:13.247Z,10.52
2023-04-16T16:15:43.343Z,27.63
2023-04-16T16:18:10.983Z,37.33
2023-04-16T16:20:38.877Z,17.25
2023-04-16T16:23:06.419Z,17.67
2023-04-16T16:25:33.567Z,19.27
2023-04-16T16:28:00.879Z,13.43
2023-04-16T16:30:28.293Z,22.83
2023-04-16T16:32:55.663Z,32.20
2023-04-16T16:35:23.064Z,31.73
2023-04-16T16:37:55.413Z,20.42
2023-04-16T16:40:22.560Z,17.98
2023-04-16T16:42:49.851Z,17.65
2023-04-16T16:45:17.329Z,16.13
2023-04-16T16:47:44.541Z,16.50
2023-04-16T16:50:11.882Z,17.88
2023-04-16T16:52:39.035Z,19.00
2023-04-16T16:55:08.767Z,21.58
2023-04-16T16:57:36.185Z,16.20
2023-04-16T17:00:08.152Z,18.05
2023-04-16T17:02:35.576Z,20.70
2023-04-16T17:05:02.899Z,19.10
2023-04-16T17:07:30.550Z,20.73
2023-04-16T17:10:01.624Z,19.30
2023-04-16T17:12:32.691Z,14.40
2023-04-16T17:14:59.955Z,28.25
2023-04-16T17:17:28.545Z,21.52
2023-04-16T17:19:56.008Z,28.13
2023-04-16T17:22:23.273Z,21.73
2023-04-16T17:24:51.725Z,22.88
2023-04-16T17:27:19.150Z,33.00
2023-04-16T17:29:47.288Z,18.73
2023-04-16T17:32:14.776Z,22.75
2023-04-16T17:34:44.213Z,20.88
2023-04-16T17:37:11.367Z,18.02
2023-04-16T17:39:38.535Z,18.42
2023-04-16T17:42:05.734Z,22.73
2023-04-16T17:44:32.935Z,24.92
2023-04-16T17:47:00.446Z,44.15
2023-04-16T17:49:28.570Z,23.20
2023-04-16T17:51:58.126Z,24.83
2023-04-16T17:54:26.546Z,39.15
2023-04-16T17:56:54.653Z,37.97
2023-04-16T17:59:22.340Z,23.73
2023-04-16T18:01:49.884Z,30.55
2023-04-16T18:04:17.739Z,22.58
2023-04-16T18:06:45.428Z,25.83
2023-04-16T18:09:15.369Z,19.67
2023-04-16T18:11:51.242Z,17.98
2023-04-16T18:14:21.471Z,28.60
2023-04-16T18:16:49.188Z,25.70
2023-04-16T18:19:16.656Z,20.15
2023-04-16T18:21:44.054Z,24.73
2023-04-16T18:24:11.612Z,32.38
2023-04-16T18:26:41.056Z,24.80
2023-04-16T18:29:09.189Z,25.85
2023-04-16T18:31:36.647Z,21.23
2023-04-16T18:34:03.991Z,17.92
2023-04-16T18:36:31.323Z,40.95
2023-04-16T18:39:02.080Z,16.23
2023-04-16T18:41:30.021Z,18.50
2023-04-16T18:43:58.033Z,24.75
2023-04-16T18:46:28.419Z,22.20
2023-04-16T18:48:55.758Z,20.73
2023-04-16T18:51:23.422Z,21.92
2023-04-16T18:53:50.746Z,27.05
2023-04-16T18:56:18.465Z,21.65
2023-04-16T18:58:45.710Z,24.48
2023-04-16T19:01:13.111Z,23.45
2023-04-16T19:03:40.884Z,27.77
2023-04-16T19:06:08.144Z,28.20
2023-04-16T19:08:35.293Z,28.23
2023-04-16T19:11:02.542Z,30.17
2023-04-16T19:13:30.526Z,27.50
2023-04-16T19:16:01.779Z,28.23
2023-04-16T19:18:29.338Z,29.33
2023-04-16T19:21:00.755Z,25.52
2023-04-16T19:23:28.276Z,26.20
2023-04-16T19:25:58.373Z,28.42
2023-04-16T19:28:26.354Z,24.65
2023-04-16T19:30:54.029Z,28.23
2023-04-16T19:33:21.270Z,25.25
2023-04-16T19:35:48.514Z,30.38
2023-04-16T19:38:15.881Z,29.92
2023-04-16T19:40:46.676Z,27.48
2023-04-16T19:43:14.098Z,20.52
2023-04-16T19:45:45.199Z,30.80
2023-04-16T19:48:12.410Z,26.02
2023-04-16T19:50:42.976Z,30.45
2023-04-16T19:53:10.365Z,24.30
2023-04-16T19:55:39.556Z,29.73
2023-04-16T19:58:06.947Z,25.52
2023-04-16T20:00:35.126Z,27.75
2023-04-16T20:03:02.662Z,32.83
2023-04-16T20:05:30.082Z,31.90
2023-04-16T20:07:57.597Z,25.63
2023-04-16T20:10:26.041Z,27.23
2023-04-16T20:12:53.354Z,31.52
2023-04-16T20:15:20.918Z,29.85
2023-04-16T20:17:48.118Z,35.33
2023-04-16T20:20:16.497Z,34.20
2023-04-16T20:22:43.819Z,24.77
2023-04-16T20:25:11.480Z,21.80
2023-04-16T20:27:38.783Z,31.30
2023-04-16T20:30:06.459Z,32.33
2023-04-16T20:32:33.878Z,40.08
2023-04-16T20:35:01.974Z,29.13
2023-04-16T20:37:29.281Z,24.17
2023-04-16T20:39:56.592Z,24.90
2023-04-16T20:45:38.238Z,25.42
2023-04-16T20:48:05.835Z,32.38
2023-04-16T20:50:33.567Z,24.27
2023-04-16T20:53:00.751Z,23.67
2023-04-16T20:55:27.918Z,31.52
2023-04-16T20:57:55.038Z,29.33
2023-04-16T21:00:22.396Z,31.52
2023-04-16T21:02:49.981Z,37.20
2023-04-16T21:05:18.978Z,28.80
2023-04-16T21:10:20.024Z,31.02
2023-04-16T21:12:47.274Z,23.95
2023-04-16T21:15:14.677Z,30.85
2023-04-16T21:17:41.853Z,34.40
2023-04-16T21:20:13.568Z,39.90
2023-04-16T21:22:40.792Z,31.73
2023-04-16T21:25:08.178Z,14.50
2023-04-16T21:27:35.486Z,29.65
2023-04-16T21:30:02.632Z,23.00
2023-04-16T21:32:29.770Z,28.75
2023-04-16T21:34:56.941Z,29.98
2023-04-16T21:37:24.119Z,33.03
2023-04-16T21:39:51.383Z,35.83
2023-04-16T21:42:18.489Z,34.70
2023-04-16T21:44:45.607Z,35.83
2023-04-16T21:47:12.978Z,36.13
2023-04-16T21:49:42.188Z,31.85
2023-04-16T21:52:14.499Z,33.10
2023-04-16T21:54:41.626Z,28.40
2023-04-16T21:57:08.742Z,25.60
2023-04-16T21:59:35.880Z,32.95
2023-04-16T22:02:03.104Z,42.03
2023-04-16T22:04:37.501Z,41.08
2023-04-16T22:07:05.910Z,40.60
2023-04-16T22:09:33.252Z,36.40
2023-04-16T22:12:00.501Z,34.35
2023-04-16T22:14:28.691Z,26.77
2023-04-16T22:16:56.659Z,30.88
2023-04-16T22:19:23.878Z,46.00
2023-04-16T22:21:51.108Z,35.25
2023-04-16T22:24:18.290Z,37.00
2023-04-16T22:26:45.481Z,18.75
2023-04-16T22:29:13.202Z,23.20
2023-04-16T22:31:40.592Z,36.38
2023-04-16T22:34:07.775Z,33.90
2023-04-16T22:36:34.916Z,34.95
2023-04-16T22:39:02.030Z,40.05
2023-04-16T22:41:29.491Z,34.78
2023-04-16T22:43:56.595Z,32.53
2023-04-16T22:46:26.140Z,41.15
2023-04-16T22:48:53.845Z,36.72
2023-04-16T22:51:27.045Z,38.83
2023-04-16T22:53:54.370Z,34.72
2023-04-16T22:56:21.871Z,33.08
2023-04-16T22:58:52.825Z,30.48
2023-04-16T23:01:19.966Z,29.35
2023-04-16T23:03:47.153Z,25.33
2023-04-16T23:06:14.957Z,28.70
2023-04-16T23:08:42.099Z,32.83
2023-04-16T23:11:09.279Z,18.60
2023-04-16T23:13:36.388Z,34.65
2023-04-16T23:16:03.679Z,22.00
2023-04-16T23:18:31.451Z,40.00
2023-04-16T23:20:58.699Z,37.08
2023-04-16T23:23:25.995Z,31.25
2023-04-16T23:25:53.919Z,43.60
2023-04-16T23:28:22.033Z,37.55
2023-04-16T23:30:53.041Z,30.52
2023-04-16T23:33:20.260Z,38.53
2023-04-16T23:35:47.936Z,42.08
2023-04-16T23:38:15.128Z,34.40
2023-04-16T23:40:42.548Z,41.42
2023-04-16T23:43:10.210Z,43.63
2023-04-16T23:45:37.359Z,47.05
2023-04-16T23:48:04.881Z,41.58
2023-04-16T23:50:32.552Z,40.00
2023-04-16T23:52:59.699Z,37.80
2023-04-16T23:55:26.989Z,30.50
2023-04-16T23:57:54.123Z,29.10
